sensor_id;sensor_type;location;lat;lon;timestamp;P1;durP1;ratioP1;P2;durP2;ratioP2
77004;SDS011;67261;53.132;18.006;2023-04-09T18:14:06;30.80;;;18.50;;
77004;SDS011;67261;53.132;18.006;2023-04-09T18:19:04;32.70;;;19.10;;
77004;SDS011;67261;53.132;18.006;2023-04-09T18:21:32;39.30;;;21.20;;
77004;SDS011;67261;53.132;18.006;2023-04-09T18:24:03;38.40;;;22.90;;
77004;SDS011;67261;53.132;18.006;2023-04-09T18:26:31;36.60;;;22.30;;
77004;SDS011;67261;53.132;18.006;2023-04-09T18:28:59;39.30;;;22.50;;
77004;SDS011;67261;53.132;18.006;2023-04-09T18:31:28;40.30;;;23.40;;
77004;SDS011;67261;53.132;18.006;2023-04-09T18:33:55;40.40;;;21.60;;
77004;SDS011;67261;53.132;18.006;2023-04-09T18:36:23;35.40;;;19.90;;
77004;SDS011;67261;53.132;18.006;2023-04-09T18:38:50;36.30;;;20.70;;
77004;SDS011;67261;53.132;18.006;2023-04-09T18:41:21;33.60;;;19.20;;
77004;SDS011;67261;53.132;18.006;2023-04-09T18:43:52;40.20;;;22.50;;
77004;SDS011;67261;53.132;18.006;2023-04-09T18:46:19;38.60;;;23.10;;
77004;SDS011;67261;53.132;18.006;2023-04-09T18:51:14;49.50;;;29.00;;
77004;SDS011;67261;53.132;18.006;2023-04-09T18:53:42;43.10;;;24.10;;
77004;SDS011;67261;53.132;18.006;2023-04-09T18:56:09;49.90;;;27.60;;
77004;SDS011;67261;53.132;18.006;2023-04-09T18:58:37;47.90;;;25.30;;
77004;SDS011;67261;53.132;18.006;2023-04-09T19:01:08;52.80;;;28.40;;
77004;SDS011;67261;53.132;18.006;2023-04-09T19:03:37;59.80;;;37.50;;
77004;SDS011;67261;53.132;18.006;2023-04-09T19:06:09;199.80;;;134.50;;
77004;SDS011;67261;53.132;18.006;2023-04-09T19:08:40;90.80;;;56.80;;
77004;SDS011;67261;53.132;18.006;2023-04-09T19:13:35;90.90;;;52.10;;
77004;SDS011;67261;53.132;18.006;2023-04-09T19:16:03;74.70;;;45.20;;
77004;SDS011;67261;53.132;18.006;2023-04-09T19:18:32;70.70;;;42.00;;
77004;SDS011;67261;53.132;18.006;2023-04-09T19:23:27;39.10;;;21.80;;
77004;SDS011;67261;53.132;18.006;2023-04-09T19:25:55;39.40;;;23.80;;
77004;SDS011;67261;53.132;18.006;2023-04-09T19:28:23;53.20;;;32.60;;
77004;SDS011;67261;53.132;18.006;2023-04-09T19:30:50;56.90;;;35.30;;
77004;SDS011;67261;53.132;18.006;2023-04-09T19:33:21;41.80;;;26.80;;
77004;SDS011;67261;53.132;18.006;2023-04-09T19:35:50;37.20;;;23.70;;
77004;SDS011;67261;53.132;18.006;2023-04-09T19:38:18;37.10;;;22.80;;
77004;SDS011;67261;53.132;18.006;2023-04-09T19:40:46;34.10;;;20.70;;
77004;SDS011;67261;53.132;18.006;2023-04-09T19:43:14;33.10;;;19.20;;
77004;SDS011;67261;53.132;18.006;2023-04-09T19:48:10;27.60;;;14.20;;
77004;SDS011;67261;53.132;18.006;2023-04-09T19:50:38;25.70;;;14.40;;
77004;SDS011;67261;53.132;18.006;2023-04-09T19:53:10;22.20;;;14.40;;
77004;SDS011;67261;53.132;18.006;2023-04-09T19:55:37;23.40;;;13.80;;
77004;SDS011;67261;53.132;18.006;2023-04-09T19:58:05;25.50;;;14.60;;
77004;SDS011;67261;53.132;18.006;2023-04-09T20:00:33;20.90;;;13.70;;
77004;SDS011;67261;53.132;18.006;2023-04-09T20:03:00;22.30;;;13.90;;
77004;SDS011;67261;53.132;18.006;2023-04-09T20:07:56;21.10;;;12.70;;
77004;SDS011;67261;53.132;18.006;2023-04-09T20:10:25;24.20;;;14.40;;
77004;SDS011;67261;53.132;18.006;2023-04-09T20:12:53;23.20;;;14.20;;
77004;SDS011;67261;53.132;18.006;2023-04-09T20:15:20;18.10;;;10.40;;
77004;SDS011;67261;53.132;18.006;2023-04-09T20:17:48;16.10;;;9.90;;
77004;SDS011;67261;53.132;18.006;2023-04-09T20:20:16;19.90;;;11.30;;
77004;SDS011;67261;53.132;18.006;2023-04-09T20:22:46;20.70;;;10.80;;
77004;SDS011;67261;53.132;18.006;2023-04-09T20:25:19;16.40;;;8.80;;
77004;SDS011;67261;53.132;18.006;2023-04-09T20:27:47;16.20;;;9.30;;
77004;SDS011;67261;53.132;18.006;2023-04-09T20:30:15;13.00;;;8.20;;
77004;SDS011;67261;53.132;18.006;2023-04-09T20:32:42;14.20;;;8.50;;
77004;SDS011;67261;53.132;18.006;2023-04-09T20:35:09;15.50;;;8.60;;
77004;SDS011;67261;53.132;18.006;2023-04-09T20:37:38;13.70;;;6.60;;
77004;SDS011;67261;53.132;18.006;2023-04-09T20:40:05;16.20;;;8.80;;
77004;SDS011;67261;53.132;18.006;2023-04-09T20:44:59;18.40;;;9.10;;
77004;SDS011;67261;53.132;18.006;2023-04-09T20:47:27;16.70;;;9.30;;
77004;SDS011;67261;53.132;18.006;2023-04-09T20:49:54;20.20;;;10.90;;
77004;SDS011;67261;53.132;18.006;2023-04-09T20:52:25;17.40;;;10.60;;
77004;SDS011;67261;53.132;18.006;2023-04-09T20:54:56;16.50;;;10.50;;
77004;SDS011;67261;53.132;18.006;2023-04-09T20:57:23;16.70;;;9.70;;
77004;SDS011;67261;53.132;18.006;2023-04-09T20:59:50;14.10;;;7.90;;
77004;SDS011;67261;53.132;18.006;2023-04-09T21:02:20;14.50;;;6.60;;
77004;SDS011;67261;53.132;18.006;2023-04-09T21:04:48;13.00;;;6.50;;
77004;SDS011;67261;53.132;18.006;2023-04-09T21:07:15;12.30;;;6.60;;
77004;SDS011;67261;53.132;18.006;2023-04-09T21:09:42;14.70;;;8.10;;
77004;SDS011;67261;53.132;18.006;2023-04-09T21:12:09;13.20;;;7.50;;
77004;SDS011;67261;53.132;18.006;2023-04-09T21:14:37;12.20;;;6.40;;
77004;SDS011;67261;53.132;18.006;2023-04-09T21:17:04;12.30;;;5.90;;
77004;SDS011;67261;53.132;18.006;2023-04-09T21:19:31;10.60;;;5.60;;
77004;SDS011;67261;53.132;18.006;2023-04-09T21:22:01;10.70;;;5.60;;
77004;SDS011;67261;53.132;18.006;2023-04-09T21:24:28;10.60;;;6.20;;
77004;SDS011;67261;53.132;18.006;2023-04-09T21:26:56;11.00;;;6.20;;
77004;SDS011;67261;53.132;18.006;2023-04-09T21:29:24;11.80;;;5.90;;
77004;SDS011;67261;53.132;18.006;2023-04-09T21:31:51;10.50;;;5.20;;
77004;SDS011;67261;53.132;18.006;2023-04-09T21:34:18;10.30;;;5.50;;
77004;SDS011;67261;53.132;18.006;2023-04-09T21:36:45;10.00;;;5.10;;
77004;SDS011;67261;53.132;18.006;2023-04-09T21:39:12;9.20;;;5.50;;
77004;SDS011;67261;53.132;18.006;2023-04-09T21:41:40;9.30;;;4.70;;
77004;SDS011;67261;53.132;18.006;2023-04-09T21:44:07;8.50;;;5.10;;
77004;SDS011;67261;53.132;18.006;2023-04-09T21:46:35;8.40;;;4.50;;
77004;SDS011;67261;53.132;18.006;2023-04-09T21:49:03;9.80;;;4.90;;
77004;SDS011;67261;53.132;18.006;2023-04-09T21:51:30;8.50;;;4.40;;
77004;SDS011;67261;53.132;18.006;2023-04-09T21:54:04;9.00;;;5.10;;
77004;SDS011;67261;53.132;18.006;2023-04-09T21:56:33;10.70;;;4.90;;
77004;SDS011;67261;53.132;18.006;2023-04-09T21:59:01;9.10;;;4.80;;
77004;SDS011;67261;53.132;18.006;2023-04-09T22:01:28;9.20;;;5.10;;
77004;SDS011;67261;53.132;18.006;2023-04-09T22:03:57;11.20;;;5.20;;
77004;SDS011;67261;53.132;18.006;2023-04-09T22:06:25;12.40;;;5.50;;
77004;SDS011;67261;53.132;18.006;2023-04-09T22:08:53;9.70;;;4.50;;
77004;SDS011;67261;53.132;18.006;2023-04-09T22:11:22;12.90;;;7.20;;
77004;SDS011;67261;53.132;18.006;2023-04-09T22:13:52;10.80;;;6.50;;
77004;SDS011;67261;53.132;18.006;2023-04-09T22:16:20;9.70;;;4.80;;
77004;SDS011;67261;53.132;18.006;2023-04-09T22:18:47;9.60;;;5.20;;
77004;SDS011;67261;53.132;18.006;2023-04-09T22:21:15;10.00;;;4.80;;
77004;SDS011;67261;53.132;18.006;2023-04-09T22:23:42;9.10;;;5.10;;
77004;SDS011;67261;53.132;18.006;2023-04-09T22:26:09;9.10;;;5.10;;
77004;SDS011;67261;53.132;18.006;2023-04-09T22:28:36;9.70;;;4.80;;
77004;SDS011;67261;53.132;18.006;2023-04-09T22:31:04;9.70;;;4.50;;
77004;SDS011;67261;53.132;18.006;2023-04-09T22:33:31;9.50;;;5.00;;
77004;SDS011;67261;53.132;18.006;2023-04-09T22:35:58;10.40;;;4.80;;
77004;SDS011;67261;53.132;18.006;2023-04-09T22:38:25;10.80;;;5.00;;
77004;SDS011;67261;53.132;18.006;2023-04-09T22:43:20;11.00;;;5.50;;
77004;SDS011;67261;53.132;18.006;2023-04-09T22:48:17;8.70;;;4.50;;
77004;SDS011;67261;53.132;18.006;2023-04-09T22:50:44;10.50;;;4.80;;
77004;SDS011;67261;53.132;18.006;2023-04-09T22:53:12;10.30;;;4.60;;
77004;SDS011;67261;53.132;18.006;2023-04-09T22:55:45;10.70;;;4.50;;
77004;SDS011;67261;53.132;18.006;2023-04-09T22:58:14;10.90;;;4.90;;
77004;SDS011;67261;53.132;18.006;2023-04-09T23:00:41;12.00;;;4.80;;
77004;SDS011;67261;53.132;18.006;2023-04-09T23:03:09;10.70;;;4.70;;
77004;SDS011;67261;53.132;18.006;2023-04-09T23:05:36;8.50;;;4.40;;
77004;SDS011;67261;53.132;18.006;2023-04-09T23:08:03;9.20;;;4.70;;
77004;SDS011;67261;53.132;18.006;2023-04-09T23:10:30;9.10;;;4.90;;
77004;SDS011;67261;53.132;18.006;2023-04-09T23:12:59;9.20;;;4.30;;
77004;SDS011;67261;53.132;18.006;2023-04-09T23:15:26;11.30;;;4.70;;
77004;SDS011;67261;53.132;18.006;2023-04-09T23:17:54;10.80;;;5.20;;
77004;SDS011;67261;53.132;18.006;2023-04-09T23:22:48;8.90;;;4.60;;
77004;SDS011;67261;53.132;18.006;2023-04-09T23:25:16;10.90;;;5.20;;
77004;SDS011;67261;53.132;18.006;2023-04-09T23:27:43;9.20;;;4.30;;
77004;SDS011;67261;53.132;18.006;2023-04-09T23:30:10;9.40;;;4.20;;
77004;SDS011;67261;53.132;18.006;2023-04-09T23:32:44;21.30;;;8.70;;
77004;SDS011;67261;53.132;18.006;2023-04-09T23:35:12;14.10;;;6.50;;
77004;SDS011;67261;53.132;18.006;2023-04-09T23:37:40;11.80;;;5.20;;
77004;SDS011;67261;53.132;18.006;2023-04-09T23:40:09;12.80;;;5.80;;
77004;SDS011;67261;53.132;18.006;2023-04-09T23:42:36;9.10;;;4.20;;
77004;SDS011;67261;53.132;18.006;2023-04-09T23:45:04;9.40;;;4.90;;
77004;SDS011;67261;53.132;18.006;2023-04-09T23:47:33;10.00;;;3.80;;
77004;SDS011;67261;53.132;18.006;2023-04-09T23:50:01;10.40;;;4.60;;
77004;SDS011;67261;53.132;18.006;2023-04-09T23:52:33;7.70;;;3.70;;
77004;SDS011;67261;53.132;18.006;2023-04-09T23:55:01;7.40;;;4.00;;
77004;SDS011;67261;53.132;18.006;2023-04-09T23:57:29;9.00;;;4.20;;
77004;SDS011;67261;53.132;18.006;2023-04-09T23:59:56;10.40;;;4.60;;
